createdAt,value
2023-04-03T00:01:19.785Z,103222.34
2023-04-03T00:03:46.568Z,103221.53
2023-04-03T00:06:13.433Z,103228.22
2023-04-03T00:08:41.287Z,103235.72
2023-04-03T00:11:08.338Z,103233.44
2023-04-03T00:13:34.952Z,103235.75
2023-04-03T00:16:01.612Z,103234.53
2023-04-03T00:18:28.450Z,103232.03
2023-04-03T00:20:54.952Z,103234.13
2023-04-03T00:23:21.931Z,103234.56
2023-04-03T00:25:48.424Z,103233.09
2023-04-03T00:28:14.896Z,103236.84
2023-04-03T00:30:42.053Z,103238.16
2023-04-03T00:33:08.609Z,103236.69
2023-04-03T00:35:36.227Z,103232.53
2023-04-03T00:38:02.949Z,103241.72
2023-04-03T00:40:35.845Z,103235.88
2023-04-03T00:43:16.534Z,103237.16
2023-04-03T00:45:54.651Z,103246.31
2023-04-03T00:48:25.877Z,103258.41
2023-04-03T00:50:53.530Z,103247.78
2023-04-03T00:53:26.511Z,103253.44
2023-04-03T00:55:56.691Z,103254.69
2023-04-03T00:58:33.322Z,103253.44
2023-04-03T01:01:00.823Z,103258.44
2023-04-03T01:03:28.633Z,103259.28
2023-04-03T01:05:55.704Z,103263.03
2023-04-03T01:08:22.608Z,103260.78
2023-04-03T01:10:49.939Z,103252.03
2023-04-03T01:13:29.523Z,103258.72
2023-04-03T01:15:56.938Z,103253.94
2023-04-03T01:18:27.506Z,103263.31
2023-04-03T01:21:17.794Z,103265.38
2023-04-03T01:24:16.686Z,103265.38
2023-04-03T01:26:43.588Z,103260.59
2023-04-03T01:29:10.309Z,103263.09
2023-04-03T01:31:36.819Z,103258.94
2023-04-03T01:34:04.249Z,103261.03
2023-04-03T01:36:33.146Z,103252.28
2023-04-03T01:39:01.094Z,103260.41
2023-04-03T01:41:28.885Z,103260.63
2023-04-03T01:44:01.875Z,103250.25
2023-04-03T01:46:28.414Z,103255.03
2023-04-03T01:48:54.880Z,103253.56
2023-04-03T01:51:21.432Z,103253.16
2023-04-03T01:53:47.959Z,103260.66
2023-04-03T01:56:15.370Z,103252.53
2023-04-03T01:58:42.226Z,103256.06
2023-04-03T02:01:08.852Z,103254.63
2023-04-03T02:03:35.513Z,103256.69
2023-04-03T02:06:02.195Z,103262.53
2023-04-03T02:08:28.778Z,103268.16
2023-04-03T02:10:55.242Z,103267.31
2023-04-03T02:13:21.726Z,103272.31
2023-04-03T02:15:48.670Z,103276.09
2023-04-03T02:18:18.344Z,103284.41
2023-04-03T02:20:44.974Z,103284.00
2023-04-03T02:23:11.462Z,103282.94
2023-04-03T02:25:38.865Z,103287.72
2023-04-03T02:28:06.392Z,103280.22
2023-04-03T02:30:33.076Z,103282.09
2023-04-03T02:32:59.698Z,103281.47
2023-04-03T02:35:27.162Z,103280.44
2023-04-03T02:37:56.661Z,103273.75
2023-04-03T02:40:23.385Z,103284.59
2023-04-03T02:42:50.922Z,103285.63
2023-04-03T02:45:18.894Z,103285.81
2023-04-03T02:47:46.803Z,103287.06
2023-04-03T02:50:13.676Z,103289.34
2023-04-03T02:52:40.384Z,103295.19
2023-04-03T02:55:07.753Z,103297.28
2023-04-03T02:57:34.338Z,103301.84
2023-04-03T03:00:00.954Z,103300.38
2023-04-03T03:02:27.736Z,103303.09
2023-04-03T03:04:54.342Z,103304.31
2023-04-03T03:07:21.053Z,103305.13
2023-04-03T03:09:47.509Z,103311.78
2023-04-03T03:12:13.964Z,103314.28
2023-04-03T03:14:41.596Z,103313.03
2023-04-03T03:17:08.853Z,103319.03
2023-04-03T03:19:35.370Z,103318.81
2023-04-03T03:22:01.936Z,103322.78
2023-04-03T03:24:28.405Z,103317.38
2023-04-03T03:26:54.888Z,103317.97
2023-04-03T03:29:21.677Z,103314.00
2023-04-03T03:31:48.211Z,103315.03
2023-04-03T03:34:14.772Z,103316.47
2023-04-03T03:36:42.200Z,103317.50
2023-04-03T03:39:08.808Z,103317.91
2023-04-03T03:41:35.433Z,103323.31
2023-04-03T03:44:03.097Z,103312.91
2023-04-03T03:46:31.833Z,103322.44
2023-04-03T03:48:58.484Z,103317.44
2023-04-03T03:51:25.012Z,103316.63
2023-04-03T03:53:51.952Z,103318.69
2023-04-03T03:56:19.934Z,103322.66
2023-04-03T03:58:46.890Z,103333.25
2023-04-03T04:01:13.765Z,103319.94
2023-04-03T04:03:46.274Z,103332.81
2023-04-03T04:06:17.558Z,103321.78
2023-04-03T04:08:44.524Z,103322.81
2023-04-03T04:11:13.067Z,103327.38
2023-04-03T04:13:41.722Z,103326.75
2023-04-03T04:16:10.824Z,103324.88
2023-04-03T04:18:37.362Z,103341.06
2023-04-03T04:21:08.133Z,103337.75
2023-04-03T04:23:34.676Z,103340.84
2023-04-03T04:26:01.813Z,103339.16
2023-04-03T04:28:31.951Z,103338.53
2023-04-03T04:31:01.118Z,103338.09
2023-04-03T04:33:31.921Z,103336.81
2023-04-03T04:36:00.939Z,103343.25
2023-04-03T04:38:28.591Z,103339.72
2023-04-03T04:40:55.617Z,103338.03
2023-04-03T04:43:22.701Z,103336.38
2023-04-03T04:46:13.102Z,103343.63
2023-04-03T04:48:47.067Z,103353.84
2023-04-03T04:51:16.809Z,103347.59
2023-04-03T04:53:43.845Z,103358.59
2023-04-03T04:56:13.297Z,103356.72
2023-04-03T04:58:41.702Z,103349.66
2023-04-03T05:01:11.515Z,103354.22
2023-04-03T05:03:46.912Z,103347.34
2023-04-03T05:06:13.457Z,103351.09
2023-04-03T05:08:40.343Z,103348.38
2023-04-03T05:11:07.759Z,103353.78
2023-04-03T05:13:34.794Z,103351.47
2023-04-03T05:16:01.769Z,103357.06
2023-04-03T05:18:28.885Z,103353.72
2023-04-03T05:20:59.596Z,103356.44
2023-04-03T05:23:27.085Z,103360.16
2023-04-03T05:25:54.375Z,103363.69
2023-04-03T05:28:21.916Z,103358.28
2023-04-03T05:30:55.413Z,103367.22
2023-04-03T05:33:23.026Z,103370.75
2023-04-03T05:35:53.835Z,103371.59
2023-04-03T05:38:25.370Z,103372.44
2023-04-03T05:40:53.556Z,103372.44
2023-04-03T05:43:20.595Z,103371.41
2023-04-03T05:45:48.928Z,103384.50
2023-04-03T05:48:15.950Z,103379.75
2023-04-03T05:50:43.478Z,103381.41
2023-04-03T05:53:21.923Z,103384.56
2023-04-03T05:55:48.823Z,103384.38
2023-04-03T05:58:16.221Z,103389.53
2023-04-03T06:00:44.907Z,103390.97
2023-04-03T06:03:16.336Z,103391.41
2023-04-03T06:05:47.263Z,103393.81
2023-04-03T06:08:16.485Z,103390.69
2023-04-03T06:10:42.978Z,103389.66
2023-04-03T06:13:09.503Z,103391.09
2023-04-03T06:15:36.058Z,103403.25
2023-04-03T06:18:07.812Z,103406.59
2023-04-03T06:20:35.364Z,103398.91
2023-04-03T06:23:01.951Z,103403.03
2023-04-03T06:25:28.584Z,103405.34
2023-04-03T06:27:56.552Z,103403.41
2023-04-03T06:30:23.150Z,103403.94
2023-04-03T06:32:49.935Z,103395.66
2023-04-03T06:35:16.951Z,103396.31
2023-04-03T06:37:43.575Z,103409.09
2023-04-03T06:40:19.833Z,103407.94
2023-04-03T06:42:47.528Z,103410.84
2023-04-03T06:45:14.126Z,103414.41
2023-04-03T06:47:45.742Z,103417.91
2023-04-03T06:50:15.600Z,103428.41
2023-04-03T06:52:43.259Z,103417.56
2023-04-03T06:55:10.704Z,103427.16
2023-04-03T06:57:38.869Z,103432.56
2023-04-03T07:00:08.233Z,103436.31
2023-04-03T07:02:37.051Z,103435.84
2023-04-03T07:05:07.757Z,103436.09
2023-04-03T07:07:38.853Z,103440.78
2023-04-03T07:10:09.647Z,103439.06
2023-04-03T07:12:39.228Z,103445.13
2023-04-03T07:15:16.650Z,103452.41
2023-04-03T07:17:43.385Z,103443.22
2023-04-03T07:20:12.749Z,103438.72
2023-04-03T07:22:39.344Z,103429.28
2023-04-03T07:25:09.424Z,103442.03
2023-04-03T07:27:36.285Z,103450.69
2023-04-03T07:30:03.003Z,103451.78
2023-04-03T07:32:30.016Z,103463.75
2023-04-03T07:35:04.113Z,103457.06
2023-04-03T07:37:35.417Z,103451.06
2023-04-03T07:40:04.450Z,103453.28
2023-04-03T07:42:31.383Z,103452.28
2023-04-03T07:44:57.974Z,103452.19
2023-04-03T07:47:25.087Z,103456.25
2023-04-03T07:49:51.817Z,103459.66
2023-04-03T07:52:18.358Z,103454.84
2023-04-03T07:54:46.401Z,103456.88
2023-04-03T07:57:13.031Z,103461.94
2023-04-03T07:59:42.090Z,103462.19
2023-04-03T08:02:10.843Z,103462.59
2023-04-03T08:04:37.450Z,103461.50
2023-04-03T08:07:04.170Z,103455.69
2023-04-03T08:09:30.704Z,103455.00
2023-04-03T08:12:03.500Z,103463.91
2023-04-03T08:14:35.289Z,103464.19
2023-04-03T08:17:02.378Z,103468.78
2023-04-03T08:19:28.922Z,103476.63
2023-04-03T08:21:56.332Z,103465.41
2023-04-03T08:24:23.059Z,103476.09
2023-04-03T08:26:49.604Z,103478.13
2023-04-03T08:29:16.610Z,103480.44
2023-04-03T08:31:43.800Z,103477.84
2023-04-03T08:34:10.689Z,103483.38
2023-04-03T08:36:40.054Z,103470.97
2023-04-03T08:39:07.453Z,103477.59
2023-04-03T08:41:36.693Z,103482.25
2023-04-03T08:44:27.299Z,103489.97
2023-04-03T08:47:18.345Z,103477.31
2023-04-03T08:49:53.223Z,103483.91
2023-04-03T08:52:28.827Z,103484.91
2023-04-03T08:54:58.615Z,103483.88
2023-04-03T08:57:27.854Z,103500.94
2023-04-03T08:59:54.470Z,103494.34
2023-04-03T09:02:44.504Z,103486.13
2023-04-03T09:05:19.008Z,103474.81
2023-04-03T09:07:51.520Z,103474.81
2023-04-03T09:10:27.752Z,103470.41
2023-04-03T09:13:10.328Z,103476.75
2023-04-03T09:15:39.363Z,103489.97
2023-04-03T09:18:27.524Z,103479.19
2023-04-03T09:21:14.608Z,103480.31
2023-04-03T09:23:47.659Z,103482.25
2023-04-03T09:26:29.588Z,103496.81
2023-04-03T09:29:01.706Z,103481.69
2023-04-03T09:31:32.233Z,103478.13
2023-04-03T09:34:04.378Z,103466.81
2023-04-03T09:36:48.668Z,103475.66
2023-04-03T09:39:18.333Z,103463.00
2023-04-03T09:42:06.901Z,103467.41
2023-04-03T09:44:39.871Z,103465.75
2023-04-03T09:47:24.661Z,103457.09
2023-04-03T09:49:51.727Z,103448.41
2023-04-03T09:52:21.369Z,103472.13
2023-04-03T09:54:49.991Z,103461.47
2023-04-03T09:57:17.165Z,103457.88
2023-04-03T09:59:45.681Z,103459.03
2023-04-03T10:02:12.144Z,103444.47
2023-04-03T10:04:41.458Z,103439.25
2023-04-03T10:07:28.207Z,103442.63
2023-04-03T10:10:23.791Z,103439.56
2023-04-03T10:13:05.407Z,103439.84
2023-04-03T10:15:42.200Z,103435.13
2023-04-03T10:18:28.515Z,103443.66
2023-04-03T10:21:02.500Z,103432.09
2023-04-03T10:23:43.021Z,103424.56
2023-04-03T10:26:42.079Z,103425.19
2023-04-03T10:29:38.980Z,103421.34
2023-04-03T10:32:25.545Z,103404.88
2023-04-03T10:35:11.484Z,103412.34
2023-04-03T10:38:14.118Z,103397.84
2023-04-03T10:41:03.024Z,103390.78
2023-04-03T10:44:05.315Z,103380.94
2023-04-03T10:46:54.380Z,103388.97
2023-04-03T10:49:35.390Z,103386.16
2023-04-03T10:52:24.879Z,103382.03
2023-04-03T10:55:16.681Z,103389.44
2023-04-03T10:57:59.504Z,103393.63
2023-04-03T11:00:44.696Z,103387.19
2023-04-03T11:03:25.567Z,103378.00
2023-04-03T11:06:00.168Z,103368.44
2023-04-03T11:08:36.042Z,103365.00
2023-04-03T11:11:49.773Z,103384.13
2023-04-03T11:14:38.237Z,103354.94
2023-04-03T11:17:36.904Z,103370.13
2023-04-03T11:20:22.482Z,103388.59
2023-04-03T11:22:59.600Z,103374.66
2023-04-03T11:25:27.231Z,103373.44
2023-04-03T11:28:02.808Z,103360.94
2023-04-03T11:30:39.146Z,103370.91
2023-04-03T11:33:24.054Z,103378.56
2023-04-03T11:35:56.252Z,103362.34
2023-04-03T11:38:33.114Z,103366.16
2023-04-03T11:40:59.659Z,103366.16
2023-04-03T11:43:31.393Z,103360.50
2023-04-03T11:46:09.916Z,103355.09
2023-04-03T11:48:36.970Z,103349.66
2023-04-03T11:51:29.291Z,103355.78
2023-04-03T11:54:15.827Z,103353.00
2023-04-03T11:56:42.352Z,103353.59
2023-04-03T11:59:12.611Z,103373.63
2023-04-03T12:01:52.972Z,103359.22
2023-04-03T12:04:22.582Z,103337.75
2023-04-03T12:06:49.804Z,103350.59
2023-04-03T12:09:28.818Z,103342.94
2023-04-03T12:11:58.874Z,103333.88
2023-04-03T12:14:27.139Z,103327.91
2023-04-03T12:16:58.709Z,103332.91
2023-04-03T12:19:41.331Z,103329.06
2023-04-03T12:22:20.146Z,103321.72
2023-04-03T12:24:50.190Z,103326.41
2023-04-03T12:27:16.668Z,103315.97
2023-04-03T12:29:52.521Z,103324.00
2023-04-03T12:33:09.711Z,103315.47
2023-04-03T12:36:01.939Z,103309.16
2023-04-03T12:38:43.579Z,103303.97
2023-04-03T12:41:22.741Z,103298.19
2023-04-03T12:44:20.283Z,103305.63
2023-04-03T12:46:52.062Z,103286.03
2023-04-03T12:49:42.889Z,103285.19
2023-04-03T12:52:23.757Z,103275.47
2023-04-03T12:54:54.268Z,103277.13
2023-04-03T12:57:29.671Z,103274.94
2023-04-03T12:59:58.640Z,103264.47
2023-04-03T13:02:47.268Z,103252.97
2023-04-03T13:06:09.707Z,103268.16
2023-04-03T13:08:36.333Z,103264.31
2023-04-03T13:11:11.387Z,103253.88
2023-04-03T13:13:39.987Z,103262.44
2023-04-03T13:16:12.523Z,103261.38
2023-04-03T13:18:52.906Z,103258.59
2023-04-03T13:21:42.017Z,103250.59
2023-04-03T13:24:16.919Z,103255.03
2023-04-03T13:26:44.479Z,103243.22
2023-04-03T13:29:31.086Z,103245.13
2023-04-03T13:32:02.660Z,103238.50
2023-04-03T13:34:37.127Z,103242.34
2023-04-03T13:40:35.154Z,103242.34
2023-04-03T13:43:22.239Z,103258.03
2023-04-03T13:46:07.167Z,103249.22
2023-04-03T13:48:39.133Z,103253.38
2023-04-03T13:51:21.773Z,103252.00
2023-04-03T13:53:52.202Z,103234.13
2023-04-03T13:56:39.703Z,103256.66
2023-04-03T13:59:12.387Z,103253.06
2023-04-03T14:01:46.553Z,103249.78
2023-04-03T14:04:27.665Z,103243.16
2023-04-03T14:06:54.999Z,103239.59
2023-04-03T14:09:23.081Z,103232.19
2023-04-03T14:11:53.632Z,103239.63
2023-04-03T14:14:33.603Z,103232.75
2023-04-03T14:17:07.526Z,103217.09
2023-04-03T14:19:41.478Z,103225.88
2023-04-03T14:22:16.582Z,103217.34
2023-04-03T14:24:44.523Z,103211.84
2023-04-03T14:27:26.787Z,103207.19
2023-04-03T14:29:56.774Z,103200.03
2023-04-03T14:32:24.891Z,103205.25
2023-04-03T14:34:53.276Z,103198.94
2023-04-03T14:37:23.729Z,103202.22
2023-04-03T14:39:53.233Z,103194.22
2023-04-03T14:42:23.133Z,103187.41
2023-04-03T14:44:53.199Z,103196.75
2023-04-03T14:47:31.350Z,103193.97
2023-04-03T14:50:05.705Z,103198.09
2023-04-03T14:52:35.701Z,103192.59
2023-04-03T14:55:07.850Z,103190.41
2023-04-03T14:57:36.044Z,103187.91
2023-04-03T15:00:05.071Z,103190.91
2023-04-03T15:02:33.037Z,103183.75
2023-04-03T15:05:01.710Z,103183.22
2023-04-03T15:07:33.385Z,103182.34
2023-04-03T15:10:15.681Z,103178.50
2023-04-03T15:12:43.342Z,103186.16
2023-04-03T15:15:10.861Z,103191.38
2023-04-03T15:17:38.179Z,103191.63
2023-04-03T15:20:15.579Z,103200.97
2023-04-03T15:22:57.176Z,103185.59
2023-04-03T15:26:14.063Z,103202.28
2023-04-03T15:28:42.684Z,103191.03
2023-04-03T15:31:09.868Z,103207.50
2023-04-03T15:33:39.282Z,103204.94
2023-04-03T15:36:29.147Z,103200.50
2023-04-03T15:38:57.178Z,103193.00
2023-04-03T15:41:29.173Z,103203.88
2023-04-03T15:43:55.922Z,103196.97
2023-04-03T15:46:38.291Z,103194.97
2023-04-03T15:49:05.706Z,103191.97
2023-04-03T15:51:40.250Z,103185.41
2023-04-03T15:54:06.914Z,103195.47
2023-04-03T15:56:33.593Z,103194.31
2023-04-03T15:59:03.992Z,103196.56
2023-04-03T16:01:38.399Z,103205.31
2023-04-03T16:04:11.468Z,103197.34
2023-04-03T16:06:43.294Z,103198.13
2023-04-03T16:11:51.489Z,103192.69
2023-04-03T16:14:21.440Z,103190.44
2023-04-03T16:16:47.966Z,103190.19
2023-04-03T16:19:14.509Z,103190.59
2023-04-03T16:21:41.070Z,103199.59
2023-04-03T16:24:10.363Z,103189.41
2023-04-03T16:26:40.884Z,103191.56
2023-04-03T16:29:11.088Z,103199.72
2023-04-03T16:31:37.733Z,103205.03
2023-04-03T16:34:04.360Z,103205.03
2023-04-03T16:36:31.181Z,103209.13
2023-04-03T16:38:57.787Z,103192.31
2023-04-03T16:41:24.335Z,103197.50
2023-04-03T16:43:55.043Z,103199.69
2023-04-03T16:46:22.295Z,103194.53
2023-04-03T16:48:49.102Z,103198.53
2023-04-03T16:51:15.942Z,103205.91
2023-04-03T16:53:43.240Z,103197.09
2023-04-03T16:56:09.964Z,103195.34
2023-04-03T16:58:44.322Z,103192.84
2023-04-03T17:01:42.279Z,103198.06
2023-04-03T17:07:24.176Z,103196.66
2023-04-03T17:13:02.543Z,103197.81
2023-04-03T17:15:49.851Z,103188.66
2023-04-03T17:18:24.262Z,103197.13
2023-04-03T17:20:50.965Z,103192.66
2023-04-03T17:23:17.603Z,103196.94
2023-04-03T17:25:46.442Z,103193.63
2023-04-03T17:28:13.099Z,103196.03
2023-04-03T17:30:39.748Z,103194.13
2023-04-03T17:33:06.330Z,103190.50
2023-04-03T17:35:32.881Z,103191.50
2023-04-03T17:38:01.691Z,103199.19
2023-04-03T17:40:28.321Z,103203.78
2023-04-03T17:42:55.306Z,103194.94
2023-04-03T17:45:37.873Z,103197.25
2023-04-03T17:48:04.725Z,103206.84
2023-04-03T17:50:31.434Z,103205.97
2023-04-03T17:53:23.705Z,103206.81
2023-04-03T17:55:50.466Z,103208.28
2023-04-03T17:58:17.038Z,103207.72
2023-04-03T18:00:43.626Z,103208.19
2023-04-03T18:03:13.965Z,103205.72
2023-04-03T18:05:43.406Z,103205.88
2023-04-03T18:08:10.809Z,103214.06
2023-04-03T18:10:43.423Z,103214.50
2023-04-03T18:13:10.153Z,103222.94
2023-04-03T18:15:43.752Z,103218.19
2023-04-03T18:18:11.779Z,103212.75
2023-04-03T18:20:38.935Z,103216.44
2023-04-03T18:23:05.608Z,103215.78
2023-04-03T18:28:06.190Z,103213.53
2023-04-03T18:30:36.299Z,103212.84
2023-04-03T18:33:06.038Z,103215.50
2023-04-03T18:35:32.729Z,103216.81
2023-04-03T18:37:59.598Z,103221.09
2023-04-03T18:40:26.578Z,103222.91
2023-04-03T18:42:53.551Z,103215.69
2023-04-03T18:45:23.565Z,103215.56
2023-04-03T18:47:50.420Z,103218.56
2023-04-03T18:50:17.438Z,103226.97
2023-04-03T18:52:44.263Z,103225.25
2023-04-03T18:55:11.334Z,103227.50
2023-04-03T18:57:37.830Z,103226.09
2023-04-03T19:00:05.155Z,103228.47
2023-04-03T19:02:32.049Z,103229.78
2023-04-03T19:05:01.564Z,103218.28
2023-04-03T19:07:28.414Z,103219.09
2023-04-03T19:09:55.386Z,103214.59
2023-04-03T19:12:24.220Z,103222.44
2023-04-03T19:14:52.657Z,103220.09
2023-04-03T19:17:19.128Z,103224.25
2023-04-03T19:19:45.684Z,103232.06
2023-04-03T19:22:12.166Z,103236.81
2023-04-03T19:24:38.786Z,103227.22
2023-04-03T19:27:05.300Z,103235.63
2023-04-03T19:29:31.783Z,103231.38
2023-04-03T19:31:58.252Z,103233.50
2023-04-03T19:34:25.132Z,103237.53
2023-04-03T19:36:52.359Z,103230.91
2023-04-03T19:39:19.024Z,103234.00
2023-04-03T19:41:46.208Z,103234.47
2023-04-03T19:44:12.994Z,103229.47
2023-04-03T19:46:39.558Z,103222.84
2023-04-03T19:49:06.914Z,103222.50
2023-04-03T19:51:33.555Z,103223.91
2023-04-03T19:54:00.679Z,103224.97
2023-04-03T19:56:27.376Z,103221.41
2023-04-03T19:58:54.355Z,103224.59
2023-04-03T20:01:25.529Z,103227.06
2023-04-03T20:03:54.577Z,103222.69
2023-04-03T20:06:21.738Z,103230.25
2023-04-03T20:08:48.360Z,103232.38
2023-04-03T20:11:15.175Z,103234.72
2023-04-03T20:13:41.917Z,103234.97
2023-04-03T20:16:08.759Z,103232.47
2023-04-03T20:18:35.936Z,103237.09
2023-04-03T20:21:04.757Z,103243.59
2023-04-03T20:23:31.534Z,103239.44
2023-04-03T20:26:09.344Z,103243.47
2023-04-03T20:28:37.774Z,103240.63
2023-04-03T20:31:04.798Z,103241.53
2023-04-03T20:33:31.390Z,103245.78
2023-04-03T20:35:58.460Z,103242.34
2023-04-03T20:38:25.707Z,103245.97
2023-04-03T20:40:52.440Z,103243.13
2023-04-03T20:43:19.585Z,103243.38
2023-04-03T20:45:47.978Z,103235.28
2023-04-03T20:48:18.396Z,103237.50
2023-04-03T20:50:47.556Z,103234.84
2023-04-03T20:53:17.844Z,103230.94
2023-04-03T20:56:00.196Z,103229.97
2023-04-03T20:58:30.782Z,103223.78
2023-04-03T21:00:57.512Z,103224.47
2023-04-03T21:03:27.881Z,103217.84
2023-04-03T21:06:00.892Z,103218.88
2023-04-03T21:09:05.799Z,103217.91
2023-04-03T21:12:09.910Z,103214.97
2023-04-03T21:15:13.752Z,103224.16
2023-04-03T21:18:21.106Z,103229.56
2023-04-03T21:20:47.927Z,103232.56
2023-04-03T21:23:14.854Z,103244.31
2023-04-03T21:25:41.418Z,103230.66
2023-04-03T21:28:07.959Z,103245.81
2023-04-03T21:30:34.532Z,103234.56
2023-04-03T21:33:03.870Z,103234.19
2023-04-03T21:35:30.775Z,103238.84
2023-04-03T21:37:57.716Z,103237.63
2023-04-03T21:40:24.369Z,103234.06
2023-04-03T21:42:54.727Z,103230.75
2023-04-03T21:45:21.454Z,103232.03
2023-04-03T21:47:47.970Z,103231.06
2023-04-03T21:50:15.433Z,103230.88
2023-04-03T21:52:41.907Z,103215.03
2023-04-03T21:55:09.061Z,103225.28
2023-04-03T21:57:36.203Z,103223.00
2023-04-03T22:00:04.690Z,103227.81
2023-04-03T22:02:38.772Z,103220.56
2023-04-03T22:05:05.616Z,103222.88
2023-04-03T22:07:32.105Z,103224.16
2023-04-03T22:09:58.528Z,103226.94
2023-04-03T22:12:24.988Z,103221.72
2023-04-03T22:14:51.481Z,103223.84
2023-04-03T22:17:18.050Z,103215.53
2023-04-03T22:19:47.026Z,103208.25
2023-04-03T22:22:16.316Z,103209.34
2023-04-03T22:24:44.638Z,103208.94
2023-04-03T22:27:12.933Z,103200.88
2023-04-03T22:29:39.427Z,103204.25
2023-04-03T22:32:06.377Z,103194.66
2023-04-03T22:34:33.274Z,103200.91
2023-04-03T22:36:59.862Z,103199.69
2023-04-03T22:39:26.429Z,103198.47
2023-04-03T22:41:52.888Z,103197.41
2023-04-03T22:44:19.388Z,103196.19
2023-04-03T22:46:46.263Z,103193.91
2023-04-03T22:49:15.769Z,103193.28
2023-04-03T22:51:42.343Z,103197.88
2023-04-03T22:54:08.827Z,103190.63
2023-04-03T22:56:35.365Z,103192.13
2023-04-03T22:59:02.451Z,103190.22
2023-04-03T23:01:29.339Z,103194.22
2023-04-03T23:03:56.334Z,103190.06
2023-04-03T23:06:23.401Z,103190.69
2023-04-03T23:08:49.872Z,103197.16
2023-04-03T23:11:16.571Z,103195.72
2023-04-03T23:13:43.871Z,103192.59
2023-04-03T23:16:10.878Z,103197.81
2023-04-03T23:18:43.668Z,103196.38
2023-04-03T23:21:13.705Z,103196.38
2023-04-03T23:23:40.475Z,103195.16
2023-04-03T23:26:09.314Z,103205.16
2023-04-03T23:28:36.745Z,103214.53
2023-04-03T23:31:07.137Z,103215.59
2023-04-03T23:33:33.951Z,103214.97
2023-04-03T23:36:07.292Z,103214.34
2023-04-03T23:38:34.790Z,103213.09
2023-04-03T23:41:01.483Z,103209.16
2023-04-03T23:43:28.811Z,103206.88
2023-04-03T23:45:55.290Z,103211.47
2023-04-03T23:48:21.847Z,103215.22
2023-04-03T23:50:48.278Z,103218.75
2023-04-03T23:53:14.788Z,103228.97
2023-04-03T23:55:41.937Z,103222.13
2023-04-03T23:58:08.796Z,103220.47
